ADDS METAR Data INFO
IDs: Format: Raw Decoded Include TAF

Data at: 2359 UTC 23 Feb 2018

KADG 232353Z AUTO 28009KT 10SM OVC011 07/06 A3019 RMK AO2 SLP233 T00720056 10089 20072 53018 TSNO
KADG 232253Z AUTO 29010KT 10SM OVC010 08/06 A3017 RMK AO2 SLP223 T00780061 TSNO
KADG 232153Z AUTO 28008KT 10SM OVC010 08/06 A3016 RMK AO2 SLP220 T00830061 TSNO
KADG 232137Z AUTO 27008KT 10SM OVC010 08/07 A3015 RMK AO2 T00830067 TSNO
KADG 232053Z AUTO 28009KT 10SM OVC009 08/07 A3014 RMK AO2 SLP214 T00830067 51010 TSNO
KADG 232014Z AUTO 29014G21KT 10SM OVC010 09/07 A3013 RMK AO2 T00890067 TSNO
KADG 231953Z AUTO 28011KT 10SM OVC009 09/07 A3012 RMK AO2 SLP207 T00890072 TSNO
KADG 231907Z AUTO 27010KT 10SM OVC007 08/07 A3011 RMK AO2 T00830067 TSNO
KADG 231853Z AUTO 27010KT 10SM OVC006 08/07 A3011 RMK AO2 SLP203 T00780067 TSNO
KADG 231840Z AUTO 27010KT 10SM OVC007 08/07 A3011 RMK AO2 T00780067 TSNO
KADG 231753Z AUTO 26010KT 10SM OVC005 07/06 A3011 RMK AO2 SLP203 60035 T00720061 10072 20017 56007 TSNO
KADG 231653Z AUTO 24007KT 10SM OVC005 05/04 A3011 RMK AO2 SLP204 T00500039 TSNO
KADG 231645Z AUTO 24006KT 10SM OVC006 04/04 A3011 RMK AO2 CIG 004V009 T00440039 TSNO
KADG 231623Z AUTO 23006KT 10SM OVC008 04/04 A3011 RMK AO2 CIG 004V012 T00440039 TSNO
KADG 231553Z AUTO 00000KT 8SM BKN010 OVC014 03/03 A3011 RMK AO2 RAE42 SLP206 P0017 T00330033 TSNO
KADG 231543Z AUTO 00000KT 5SM BR OVC013 03/03 A3012 RMK AO2 RAE42 P0017 T00280028 TSNO
KADG 231527Z AUTO 00000KT 2SM -RA BR SCT004 OVC012 03/03 A3013 RMK AO2 P0016 T00280028 TSNO
KADG 231521Z AUTO 30003KT 1SM -RA BR SCT005 BKN010 OVC016 03/03 A3013 RMK AO2 P0015 T00280028 TSNO
KADG 231517Z AUTO 00000KT 3/4SM +RA BR SCT005 OVC008 03/02 A3013 RMK AO2 P0015 T00280022 TSNO
KADG 231512Z AUTO 33005KT 1 1/4SM RA BR OVC005 03/02 A3013 RMK AO2 VIS 1/2V4 P0010 T00280022 TSNO
KADG 231509Z AUTO 34006KT 2SM -RA BR OVC005 03/02 A3013 RMK AO2 VIS 1V4 P0004 T00280022 TSNO
KADG 231453Z AUTO 00000KT 1 1/2SM -RA BR OVC005 03/02 A3013 RMK AO2 SLP212 P0010 60018 T00280022 55015 TSNO
KADG 231449Z AUTO 00000KT 1 3/4SM -RA BR OVC005 03/02 A3012 RMK AO2 P0009 TSNO
KADG 231448Z AUTO 00000KT 2SM -RA BR BKN003 OVC008 02/02 A3012 RMK AO2 P0009 TSNO
KADG 231434Z AUTO 15004KT 3SM -RA BR BKN005 OVC009 02/02 A3012 RMK AO2 P0007 T00220022 TSNO
KADG 231423Z AUTO 14003KT 2 1/2SM -RA BR BKN005 OVC009 02/02 A3013 RMK AO2 P0006 T00220022 TSNO
KADG 231421Z AUTO 14003KT 3SM -RA BR BKN005 OVC009 02/02 A3013 RMK AO2 P0006 T00220022 TSNO
KADG 231408Z AUTO 14003KT 2SM -RA BR BKN003 OVC008 02/02 A3014 RMK AO2 P0004 T00220022 TSNO
KADG 231353Z AUTO 14003KT 1 3/4SM RA BR OVC003 02/02 A3015 RMK AO2 RAE08B26 SLP219 P0007 T00170017 TSNO
KADG 231337Z AUTO 14003KT 2SM -RA BR OVC002 02/02 A3015 RMK AO2 RAE08B26 P0002 T00170017 TSNO
KADG 231325Z AUTO 13005KT 1 3/4SM BR OVC002 02/02 A3015 RMK AO2 RAE08 P0000 T00170017 TSNO
KADG 231304Z AUTO 12005KT 1 1/4SM -RA BR OVC002 02/01 A3016 RMK AO2 P0000 T00170011 TSNO
KADG 231253Z AUTO 13004KT 3/4SM -RA BR VV002 02/01 A3017 RMK AO2 RAB40UPB41E49 SLP227 P0001 T00170011 TSNO
KADG 231226Z AUTO 13005KT 3/4SM BR VV002 01/01 A3018 RMK AO2 T00110011 TSNO
KADG 231204Z AUTO 12005KT 1 1/2SM BR OVC002 01/01 A3020 RMK AO2 T00110006 TSNO
KADG 231153Z AUTO 13006KT 2 1/2SM BR OVC002 01/01 A3020 RMK AO2 RAE05 SLP238 P0000 60000 T00110006 10011 20000 56038 TSNO
KADG 231140Z AUTO 12006KT 2SM BR OVC002 01/01 A3021 RMK AO2 RAE05 P0000 T00110006 TSNO
KADG 231126Z AUTO 12006KT 1 1/2SM BR OVC002 01/01 A3022 RMK AO2 RAE05 PRESFR P0000 T00060006 TSNO
KADG 231053Z AUTO 11007KT 4SM -RA BR OVC003 01/01 A3024 RMK AO2 RAB36UPB47E51 SLP249 P0000 T00060006 TSNO
KADG 230953Z AUTO 13009KT 5SM BR OVC003 01/00 A3026 RMK AO2 SLP258 T00060000 TSNO
KADG 230853Z AUTO 12010KT 4SM BR OVC004 00/00 A3032 RMK AO2 SLP277 T00000000 58024 TSNO
KADG 230824Z AUTO 12008KT 3SM BR OVC004 00/M01 A3034 RMK AO2 T00001006 TSNO
KADG 230813Z AUTO 11008KT 2 1/2SM BR OVC004 00/M01 A3035 RMK AO2 T00001006 TSNO
KADG 230806Z AUTO 10008KT 1 3/4SM BR OVC005 01/M01 A3035 RMK AO2 PRESFR T00061006 TSNO
KADG 230753Z AUTO 11009KT 2 1/2SM BR OVC006 01/M01 A3037 RMK AO2 SLP295 T00061006 TSNO
KADG 230723Z AUTO 09009KT 10SM OVC006 01/M01 A3037 RMK AO2 T00061006 TSNO
KADG 230653Z AUTO 11009KT 10SM OVC007 01/M01 A3038 RMK AO2 SLP299 T00061011 TSNO
KADG 230553Z AUTO 10011G21KT 10SM OVC009 01/M01 A3039 RMK AO2 SLP302 T00061011 10022 20006 55023 TSNO
KADG 230549Z AUTO 11012G21KT 10SM OVC009 01/M01 A3039 RMK AO2 TSNO
KADG 230453Z AUTO 11012KT 10SM OVC011 01/M01 A3043 RMK AO2 SLP315 T00111011 400441011 TSNO
KADG 230353Z AUTO 10008KT 10SM OVC012 01/M02 A3046 RMK AO2 SLP326 T00061017 TSNO
KADG 230316Z AUTO 10008KT 10SM OVC014 01/M02 A3048 RMK AO2 T00061017 TSNO
KADG 230253Z AUTO 10007KT 10SM OVC017 01/M02 A3048 RMK AO2 SLP333 T00061017 56012 TSNO
KADG 230153Z AUTO 10011KT 10SM OVC018 01/M02 A3049 RMK AO2 SLP335 T00061022 TSNO
KADG 230053Z AUTO 10012KT 10SM OVC016 02/M02 A3050 RMK AO2 SLP339 T00171022 TSNO
KADG 230035Z AUTO 11010KT 10SM OVC015 02/M02 A3051 RMK AO2 T00171017 TSNO
KADG 222353Z AUTO 11013KT 10SM OVC014 02/M01 A3052 RMK AO2 SLP345 T00221011 10044 20022 53002 TSNO
KADG 222317Z AUTO 10014KT 10SM OVC014 03/M01 A3050 RMK AO2 T00281006 TSNO
KADG 222253Z AUTO 08013KT 10SM OVC015 03/M01 A3049 RMK AO2 SLP337 T00281006 TSNO
KADG 222153Z AUTO 11011KT 10SM OVC017 03/M01 A3051 RMK AO2 SLP342 T00331011 TSNO
KADG 222053Z AUTO 11010KT 10SM OVC019 04/M01 A3051 RMK AO2 SLP342 T00391011 56020 TSNO
KADG 221953Z AUTO 08011KT 10SM OVC019 04/M01 A3053 RMK AO2 SLP349 T00391011 TSNO
KADG 221853Z AUTO 09012KT 10SM OVC017 03/M02 A3054 RMK AO2 SLP353 T00281022 TSNO
KADG 221753Z AUTO 11011KT 10SM OVC016 02/M03 A3057 RMK AO2 SLP363 T00221028 10022 21011 58006 TSNO
KADG 221653Z AUTO 09013KT 10SM OVC019 01/M04 A3062 RMK AO2 SLP381 T00061039 TSNO
KADG 221553Z AUTO 09013KT 10SM BKN021 OVC100 00/M04 A3059 RMK AO2 SLP371 T00001044 TSNO
KADG 221453Z AUTO 08014KT 10SM FEW023 BKN070 OVC100 M01/M05 A3059 RMK AO2 SLP370 T10061050 53015 TSNO
KADG 221353Z AUTO 08012KT 10SM BKN075 OVC100 M01/M05 A3058 RMK AO2 SLP366 T10111050 TSNO
KADG 221253Z AUTO 07011KT 10SM OVC080 M01/M05 A3055 RMK AO2 SLP356 T10111050 TSNO